Time;durP1;ratioP1;P1;durP2;ratioP2;P2;SDS_P1;SDS_P2;PMS_P1;PMS_P2;Temp;Humidity;BMP_temperature;BMP_pressure;BME280_temperature;BME280_humidity;BME280_pressure;Samples;Min_cycle;Max_cycle;Signal;HPM_P1;HPM_P2
2021/12/12 00:03:35;;;;;;;3.83;3.30;;;16.80;53.90;;;;;;10364404;28;20222;-65
2021/12/12 00:09:00;;;;;;;3.87;3.27;;;16.90;54.10;;;;;;10368400;28;20233;-65
2021/12/12 00:14:26;;;;;;;3.73;3.30;;;16.80;54.00;;;;;;10375792;28;20194;-65
2021/12/12 00:19:48;;;;;;;4.60;3.23;;;16.80;54.10;;;;;;10375580;28;20671;-64
2021/12/12 00:25:13;;;;;;;4.30;3.43;;;16.80;54.00;;;;;;10375118;28;20214;-64
2021/12/12 00:30:37;;;;;;;5.17;3.73;;;16.80;54.60;;;;;;10375662;28;20225;-64
2021/12/12 00:35:59;;;;;;;3.53;3.23;;;16.80;54.10;;;;;;10374435;28;20211;-63
2021/12/12 00:41:30;;;;;;;4.67;3.70;;;16.80;54.10;;;;;;10374618;28;20199;-63
2021/12/12 00:46:56;;;;;;;4.47;3.50;;;16.80;54.10;;;;;;10373755;28;20222;-64
2021/12/12 00:52:20;;;;;;;4.73;3.50;;;16.80;54.20;;;;;;10374066;28;20214;-64
2021/12/12 00:57:42;;;;;;;4.37;3.63;;;16.80;54.10;;;;;;10373820;28;20699;-65
2021/12/12 01:03:09;;;;;;;5.10;3.70;;;16.80;54.10;;;;;;10374426;28;20222;-66
2021/12/12 01:08:31;;;;;;;4.47;3.50;;;16.80;54.10;;;;;;10373361;28;20219;-64
2021/12/12 01:13:55;;;;;;;4.83;3.73;;;16.80;54.20;;;;;;10374465;28;20198;-63
2021/12/12 01:19:21;;;;;;;3.83;3.33;;;16.80;54.20;;;;;;10372730;28;20695;-65
2021/12/12 01:24:46;;;;;;;4.30;3.33;;;16.80;54.20;;;;;;10372418;28;20225;-66
2021/12/12 01:30:11;;;;;;;4.20;3.13;;;16.80;54.20;;;;;;10372668;28;20627;-65
2021/12/12 01:35:34;;;;;;;4.57;3.63;;;16.80;54.30;;;;;;10372624;28;20198;-64
2021/12/12 01:40:59;;;;;;;4.47;3.53;;;16.80;54.30;;;;;;10371304;28;20198;-65
2021/12/12 01:46:26;;;;;;;4.43;3.30;;;16.80;54.30;;;;;;10371151;28;20222;-66
2021/12/12 01:51:50;;;;;;;4.20;3.47;;;16.80;54.30;;;;;;10372324;28;20560;-65
2021/12/12 01:57:17;;;;;;;4.50;3.53;;;16.80;54.30;;;;;;10371225;28;20225;-66
2021/12/12 02:02:39;;;;;;;5.27;3.80;;;16.80;54.30;;;;;;10371547;28;20195;-64
2021/12/12 02:08:07;;;;;;;4.67;3.37;;;16.80;54.40;;;;;;10371510;28;20218;-65
2021/12/12 02:13:31;;;;;;;4.63;3.73;;;16.80;54.40;;;;;;10372304;28;20280;-65
2021/12/12 02:18:57;;;;;;;4.80;3.80;;;16.80;54.40;;;;;;10371834;28;20222;-63
2021/12/12 02:35:43;;;;;;;5.13;3.63;;;16.80;54.50;;;;;;10613616;28;20178;-65
2021/12/12 02:41:08;;;;;;;3.87;3.37;;;16.80;54.50;;;;;;10613253;28;20213;-64
2021/12/12 02:46:36;;;;;;;4.80;3.60;;;16.80;54.60;;;;;;10609403;28;20226;-65
2021/12/12 02:51:59;;;;;;;4.60;3.67;;;16.80;54.60;;;;;;10612094;28;20213;-64
2021/12/12 02:57:21;;;;;;;4.63;3.70;;;16.80;54.50;;;;;;10611714;28;20251;-65
2021/12/12 03:02:48;;;;;;;4.33;3.63;;;16.80;54.50;;;;;;10611762;28;20276;-63
2021/12/12 03:08:12;;;;;;;5.33;4.00;;;16.80;54.60;;;;;;10607630;28;20218;-63
2021/12/12 03:13:34;;;;;;;4.77;3.77;;;16.80;54.60;;;;;;10603963;28;20218;-63
2021/12/12 03:18:58;;;;;;;5.30;3.80;;;16.80;54.60;;;;;;10611644;28;20186;-62
2021/12/12 03:24:22;;;;;;;4.50;3.60;;;16.80;54.60;;;;;;10611893;28;20198;-63
2021/12/12 03:29:45;;;;;;;3.87;3.47;;;16.80;54.60;;;;;;10610237;28;20210;-63
2021/12/12 03:35:09;;;;;;;5.13;3.70;;;16.70;54.50;;;;;;10610385;28;20186;-62
2021/12/12 03:40:35;;;;;;;5.33;3.63;;;16.70;54.50;;;;;;10586275;28;20603;-63
2021/12/12 03:45:58;;;;;;;5.00;3.90;;;16.80;54.60;;;;;;10578256;28;20219;-63
2021/12/12 03:51:24;;;;;;;4.50;3.70;;;16.80;54.60;;;;;;10582656;28;20572;-63
2021/12/12 03:56:48;;;;;;;4.50;3.70;;;16.70;54.50;;;;;;10581920;28;20183;-63
2021/12/12 04:02:10;;;;;;;4.73;3.57;;;16.70;54.60;;;;;;10540535;28;20690;-64
2021/12/12 04:07:34;;;;;;;4.93;3.90;;;16.70;54.60;;;;;;10540480;28;20216;-63
2021/12/12 04:12:57;;;;;;;5.23;4.00;;;16.70;55.20;;;;;;10552198;28;20202;-63
2021/12/12 04:18:21;;;;;;;5.03;3.70;;;16.80;54.70;;;;;;10581159;28;20202;-63
2021/12/12 04:23:44;;;;;;;5.30;3.77;;;16.70;54.60;;;;;;10615212;27;20225;-63
2021/12/12 04:29:09;;;;;;;6.10;3.60;;;16.70;54.60;;;;;;10621663;27;20338;-65
2021/12/12 04:34:34;;;;;;;5.47;3.90;;;16.70;54.70;;;;;;10621782;27;20190;-65
2021/12/12 04:39:59;;;;;;;4.80;3.73;;;16.70;54.70;;;;;;10623850;27;20203;-65
2021/12/12 04:45:33;;;;;;;6.10;3.60;;;16.70;54.80;;;;;;10644053;27;20190;-66
2021/12/12 04:51:00;;;;;;;4.30;3.50;;;16.70;54.70;;;;;;10656589;27;20209;-63
2021/12/12 04:56:34;;;;;;;4.33;3.43;;;16.70;54.70;;;;;;10664084;27;20191;-63
2021/12/12 05:02:02;;;;;;;4.20;3.67;;;16.70;54.70;;;;;;10655168;27;20203;-63
2021/12/12 05:07:31;;;;;;;4.87;3.50;;;16.70;54.80;;;;;;10662110;27;20213;-65
2021/12/12 05:12:57;;;;;;;4.63;3.60;;;16.70;55.40;;;;;;10663568;27;20202;-65
2021/12/12 05:18:26;;;;;;;4.63;3.63;;;16.70;54.90;;;;;;10662116;27;20194;-65
2021/12/12 05:23:52;;;;;;;5.80;4.00;;;16.70;54.90;;;;;;10577159;28;20233;-63
2021/12/12 05:29:21;;;;;;;4.07;3.20;;;16.70;55.00;;;;;;10577689;28;20689;-62
2021/12/12 05:34:48;;;;;;;4.03;3.50;;;16.70;54.90;;;;;;10519682;23;20223;-66
2021/12/12 05:40:12;;;;;;;5.10;3.60;;;16.70;54.80;;;;;;10493409;28;20713;-66
2021/12/12 05:45:36;;;;;;;3.77;3.13;;;16.70;54.80;;;;;;10438391;28;20200;-66
2021/12/12 05:51:01;;;;;;;4.63;3.13;;;16.70;54.80;;;;;;10451796;28;20209;-67
2021/12/12 05:56:24;;;;;;;3.93;3.00;;;16.70;54.80;;;;;;10451541;28;20193;-66
2021/12/12 06:01:49;;;;;;;4.53;3.43;;;16.70;54.90;;;;;;10447974;28;20205;-65
2021/12/12 06:07:16;;;;;;;5.47;3.67;;;16.70;54.90;;;;;;10449363;28;20549;-65
2021/12/12 06:12:40;;;;;;;4.53;3.20;;;16.70;54.80;;;;;;10450855;28;20216;-66
2021/12/12 06:18:05;;;;;;;4.60;3.17;;;16.70;54.80;;;;;;10450435;28;20189;-66
2021/12/12 06:23:28;;;;;;;3.80;3.13;;;16.80;54.70;;;;;;10444070;28;20213;-66
2021/12/12 06:28:51;;;;;;;4.27;3.00;;;16.80;54.70;;;;;;10450661;28;20572;-65
2021/12/12 06:34:15;;;;;;;3.40;3.10;;;16.80;54.70;;;;;;10442888;28;20231;-65
2021/12/12 06:39:39;;;;;;;3.10;2.70;;;16.80;54.60;;;;;;10450061;28;20181;-66
2021/12/12 06:45:01;;;;;;;3.93;3.00;;;16.80;54.60;;;;;;10438707;28;20205;-65
2021/12/12 06:50:27;;;;;;;4.27;2.93;;;16.80;54.60;;;;;;10450738;28;20568;-65
2021/12/12 06:55:52;;;;;;;3.60;2.87;;;16.80;54.60;;;;;;10450273;28;20181;-65
2021/12/12 07:01:17;;;;;;;3.50;2.73;;;16.80;54.60;;;;;;10449785;28;20200;-66
2021/12/12 07:06:41;;;;;;;4.17;2.80;;;16.80;54.60;;;;;;10417777;28;20206;-65
2021/12/12 07:12:06;;;;;;;3.77;3.10;;;16.80;54.60;;;;;;10411207;28;20260;-66
2021/12/12 07:17:28;;;;;;;3.37;2.70;;;16.80;54.60;;;;;;10417571;28;20186;-65
2021/12/12 07:22:53;;;;;;;3.40;2.60;;;16.80;54.60;;;;;;10451068;28;20209;-65
2021/12/12 07:28:16;;;;;;;4.13;2.80;;;16.80;54.60;;;;;;10458164;28;20243;-66
2021/12/12 07:33:40;;;;;;;3.50;2.57;;;16.80;54.60;;;;;;10456949;28;20947;-66
2021/12/12 07:39:07;;;;;;;4.20;2.70;;;16.80;54.60;;;;;;10453896;28;20185;-65
2021/12/12 07:44:33;;;;;;;3.23;2.50;;;16.80;54.60;;;;;;10456739;28;20626;-66
2021/12/12 07:49:56;;;;;;;3.47;2.60;;;16.80;54.60;;;;;;10414518;28;20210;-66
2021/12/12 07:55:19;;;;;;;3.40;2.60;;;16.80;54.60;;;;;;10415787;28;20676;-65
2021/12/12 08:00:45;;;;;;;3.47;2.47;;;16.80;54.60;;;;;;10440469;28;20209;-66
2021/12/12 08:06:10;;;;;;;3.67;2.80;;;16.80;54.60;;;;;;10457398;28;20189;-66
2021/12/12 08:11:35;;;;;;;3.43;2.20;;;16.80;54.60;;;;;;10456992;28;20213;-65
2021/12/12 08:16:58;;;;;;;3.27;2.50;;;16.80;54.60;;;;;;10449992;28;20196;-66
2021/12/12 08:22:21;;;;;;;4.20;2.70;;;16.90;54.70;;;;;;10445183;28;20218;-65
2021/12/12 08:27:45;;;;;;;3.03;2.60;;;16.80;54.60;;;;;;10415063;28;20332;-65
2021/12/12 08:33:08;;;;;;;2.67;2.00;;;16.80;54.70;;;;;;10415681;28;20306;-66
2021/12/12 08:38:31;;;;;;;3.63;2.30;;;16.80;54.70;;;;;;10415304;28;20194;-66
2021/12/12 08:43:55;;;;;;;3.00;2.40;;;16.80;54.70;;;;;;10426201;28;20856;-66
2021/12/12 08:49:19;;;;;;;2.73;2.10;;;16.90;54.70;;;;;;10451377;28;20213;-65
2021/12/12 08:54:44;;;;;;;3.10;2.20;;;16.90;54.70;;;;;;10453077;28;20212;-66
2021/12/12 09:00:15;;;;;;;2.57;1.93;;;16.80;54.60;;;;;;10450416;28;20269;-66
2021/12/12 09:05:41;;;;;;;2.80;2.10;;;16.80;54.70;;;;;;10452817;28;20196;-66
2021/12/12 09:11:08;;;;;;;2.40;1.67;;;16.80;54.80;;;;;;10451494;28;20228;-65
2021/12/12 09:16:37;;;;;;;3.50;2.13;;;16.80;54.80;;;;;;10454201;28;20581;-65
2021/12/12 09:22:05;;;;;;;2.93;2.00;;;16.90;54.90;;;;;;10448449;28;20225;-66
2021/12/12 09:27:31;;;;;;;2.20;2.00;;;16.90;54.90;;;;;;10452562;28;20197;-66
2021/12/12 09:33:02;;;;;;;4.47;2.10;;;16.90;54.80;;;;;;10453714;28;20217;-65
2021/12/12 09:38:30;;;;;;;2.70;2.10;;;16.90;54.80;;;;;;10454098;28;20228;-65
2021/12/12 09:44:08;;;;;;;1.90;1.70;;;16.90;54.80;;;;;;10448249;28;20299;-66
2021/12/12 09:55:42;;;;;;;2.03;1.77;;;16.90;54.70;;;;;;10451948;28;20885;-66
2021/12/12 10:01:07;;;;;;;2.43;1.80;;;16.90;54.90;;;;;;10452457;28;20213;-65
2021/12/12 10:06:39;;;;;;;2.03;1.50;;;16.90;54.90;;;;;;10452504;28;20200;-66
2021/12/12 10:12:09;;;;;;;2.03;1.83;;;16.80;54.80;;;;;;10452547;28;20773;-67
2021/12/12 10:17:38;;;;;;;1.77;1.60;;;16.80;54.90;;;;;;10452029;28;20544;-67
2021/12/12 10:23:13;;;;;;;1.77;1.53;;;16.90;54.90;;;;;;10446485;28;20204;-67
2021/12/12 10:28:41;;;;;;;3.23;2.00;;;16.90;54.90;;;;;;10450193;28;20209;-66
2021/12/12 10:34:08;;;;;;;2.37;1.57;;;16.90;55.00;;;;;;10451429;28;20212;-66
2021/12/12 10:39:35;;;;;;;2.57;1.70;;;16.80;55.00;;;;;;10451223;28;20188;-67
2021/12/12 10:45:01;;;;;;;1.73;1.47;;;16.90;55.00;;;;;;10447404;28;20225;-67
2021/12/12 10:50:31;;;;;;;1.87;1.57;;;16.90;55.00;;;;;;10457302;28;20215;-65
2021/12/12 10:56:03;;;;;;;2.00;1.60;;;16.80;55.40;;;;;;10456177;28;20193;-63
2021/12/12 11:01:29;;;;;;;2.03;1.57;;;16.90;55.00;;;;;;10459337;28;20213;-65
2021/12/12 11:06:56;;;;;;;2.63;1.57;;;16.90;55.00;;;;;;10458797;28;20205;-64
2021/12/12 11:12:27;;;;;;;2.27;1.50;;;16.90;55.00;;;;;;10458250;28;20205;-67
2021/12/12 11:17:55;;;;;;;1.77;1.40;;;16.90;54.90;;;;;;10457952;28;20560;-64
2021/12/12 11:23:22;;;;;;;1.67;1.40;;;16.90;54.90;;;;;;10449408;28;20213;-65
2021/12/12 11:28:48;;;;;;;1.50;1.30;;;16.90;55.00;;;;;;10456239;28;20208;-65
2021/12/12 11:34:12;;;;;;;1.60;1.30;;;16.90;55.00;;;;;;10516257;22;20226;-64
2021/12/12 11:39:44;;;;;;;1.53;1.30;;;16.90;55.10;;;;;;10537135;28;20191;-64
2021/12/12 11:45:13;;;;;;;1.23;1.13;;;16.90;55.10;;;;;;10540456;28;20219;-64
2021/12/12 11:50:43;;;;;;;1.63;1.20;;;16.90;55.10;;;;;;10540447;28;20211;-65
2021/12/12 11:56:10;;;;;;;2.13;1.60;;;16.90;55.10;;;;;;10536809;28;20200;-64
2021/12/12 12:01:45;;;;;;;1.30;1.10;;;16.90;55.10;;;;;;10497720;28;20285;-64
2021/12/12 12:07:15;;;;;;;1.50;1.33;;;16.90;55.10;;;;;;10496177;28;20287;-64
2021/12/12 12:12:53;;;;;;;1.60;1.30;;;16.90;55.20;;;;;;10495820;28;20338;-64
2021/12/12 12:18:29;;;;;;;1.53;1.30;;;16.90;55.20;;;;;;10497090;28;20196;-64
2021/12/12 12:24:13;;;;;;;1.90;1.50;;;16.90;55.20;;;;;;10498130;28;20225;-64
2021/12/12 12:30:08;;;;;;;1.10;1.00;;;16.90;55.20;;;;;;10496601;28;20258;-66
2021/12/12 12:36:15;;;;;;;1.40;1.30;;;16.90;55.70;;;;;;10497143;28;20224;-64
2021/12/12 12:42:42;;;;;;;1.43;1.13;;;16.90;55.20;;;;;;10522656;28;20218;-65
2021/12/12 12:48:43;;;;;;;1.30;1.13;;;16.90;55.20;;;;;;10537008;28;20215;-64
2021/12/12 12:54:20;;;;;;;1.23;1.03;;;16.90;55.30;;;;;;10533073;28;20226;-64
2021/12/12 12:59:55;;;;;;;1.20;1.07;;;16.90;55.30;;;;;;10535076;28;20184;-64
2021/12/12 13:05:49;;;;;;;1.53;1.33;;;16.90;55.90;;;;;;10541870;28;20227;-65
2021/12/12 13:11:14;;;;;;;1.37;1.13;;;16.90;55.30;;;;;;10536488;28;20308;-64
2021/12/12 13:16:48;;;;;;;1.23;1.10;;;16.90;55.40;;;;;;10536490;28;20662;-64
2021/12/12 13:22:21;;;;;;;0.97;0.90;;;16.90;55.30;;;;;;10536074;28;20211;-64
2021/12/12 13:28:03;;;;;;;1.50;1.10;;;16.90;56.00;;;;;;10535743;28;20689;-64
2021/12/12 13:33:33;;;;;;;1.30;1.10;;;16.90;55.40;;;;;;10535644;28;20730;-64
2021/12/12 13:39:08;;;;;;;1.97;1.03;;;16.90;55.50;;;;;;10536313;28;20196;-64
2021/12/12 13:45:12;;;;;;;1.60;1.10;;;16.90;55.40;;;;;;10535062;28;20204;-65
2021/12/12 13:50:45;;;;;;;1.03;0.90;;;16.90;55.40;;;;;;10502160;28;20226;-64
2021/12/12 13:56:16;;;;;;;0.90;0.90;;;16.90;55.50;;;;;;10535248;28;20195;-64
2021/12/12 14:01:52;;;;;;;1.07;0.90;;;16.90;55.60;;;;;;10535855;28;20204;-64
2021/12/12 14:07:17;;;;;;;1.10;1.00;;;16.90;55.50;;;;;;10535609;28;20188;-64
2021/12/12 14:12:40;;;;;;;1.37;1.10;;;16.90;55.60;;;;;;10535965;28;20582;-65
2021/12/12 14:18:07;;;;;;;1.30;1.00;;;16.90;55.50;;;;;;10535349;28;20199;-65
2021/12/12 14:23:33;;;;;;;1.10;1.00;;;16.90;55.60;;;;;;10534123;28;20605;-64
2021/12/12 14:28:59;;;;;;;1.10;1.00;;;16.90;55.50;;;;;;10533998;28;20212;-64
2021/12/12 14:34:28;;;;;;;1.20;1.00;;;16.90;55.60;;;;;;10531977;28;20234;-64
2021/12/12 14:39:53;;;;;;;1.43;1.07;;;16.90;55.60;;;;;;10505103;28;20192;-64
2021/12/12 14:45:19;;;;;;;1.10;0.93;;;16.90;55.70;;;;;;10532460;28;20278;-65
2021/12/12 14:50:47;;;;;;;1.43;0.90;;;16.90;55.70;;;;;;10533610;28;20219;-64
2021/12/12 14:56:13;;;;;;;1.67;0.90;;;16.90;55.70;;;;;;10534349;28;20228;-64
2021/12/12 15:01:40;;;;;;;1.10;1.00;;;16.90;55.70;;;;;;10534325;28;20218;-63
2021/12/12 15:07:09;;;;;;;1.00;0.90;;;16.90;55.70;;;;;;10532685;28;20571;-64
2021/12/12 15:12:38;;;;;;;1.20;1.03;;;16.90;55.80;;;;;;10490735;28;20220;-64
2021/12/12 15:18:04;;;;;;;0.80;0.80;;;16.90;55.80;;;;;;10491452;28;20199;-65
2021/12/12 15:23:31;;;;;;;1.30;1.10;;;16.90;55.90;;;;;;10532241;28;20687;-64
2021/12/12 15:28:56;;;;;;;0.87;0.83;;;16.90;55.80;;;;;;10532670;28;20216;-63
2021/12/12 15:34:20;;;;;;;0.73;0.63;;;16.90;55.80;;;;;;10534162;28;20234;-64
2021/12/12 15:39:49;;;;;;;0.70;0.70;;;16.90;55.90;;;;;;10499746;28;20192;-64
2021/12/12 15:45:18;;;;;;;0.80;0.80;;;16.90;55.90;;;;;;10500951;28;20238;-64
2021/12/12 15:50:41;;;;;;;1.17;0.90;;;16.90;55.90;;;;;;10498101;28;20216;-64
2021/12/12 15:56:08;;;;;;;0.80;0.80;;;16.90;55.90;;;;;;10496945;28;20196;-64
2021/12/12 16:01:36;;;;;;;0.83;0.80;;;16.90;55.90;;;;;;10496335;28;20204;-65
2021/12/12 16:07:02;;;;;;;1.10;0.90;;;16.90;55.90;;;;;;10505555;28;20708;-66
2021/12/12 16:12:25;;;;;;;0.90;0.80;;;16.90;55.90;;;;;;10523073;28;20212;-65
2021/12/12 16:17:51;;;;;;;0.60;0.60;;;16.90;55.90;;;;;;10533273;28;20194;-64
2021/12/12 16:23:16;;;;;;;0.80;0.80;;;17.00;56.00;;;;;;10522911;28;20695;-63
2021/12/12 16:28:41;;;;;;;0.93;0.83;;;17.00;56.00;;;;;;10537063;28;20250;-64
2021/12/12 16:34:08;;;;;;;1.17;0.77;;;17.00;56.00;;;;;;10546170;28;20226;-62
2021/12/12 16:39:35;;;;;;;1.20;0.87;;;17.00;55.90;;;;;;10539045;28;20193;-63
2021/12/12 16:45:00;;;;;;;2.13;0.93;;;17.10;56.00;;;;;;10535062;28;20214;-63
2021/12/12 16:50:28;;;;;;;0.90;0.70;;;17.10;56.00;;;;;;10544643;28;20223;-63
2021/12/12 16:55:53;;;;;;;1.30;0.90;;;17.10;56.00;;;;;;10548410;28;20210;-63
2021/12/12 17:01:22;;;;;;;0.70;0.70;;;17.10;55.90;;;;;;10546595;28;20717;-64
2021/12/12 17:06:50;;;;;;;2.47;0.73;;;17.10;55.90;;;;;;10536462;28;20184;-65
2021/12/12 17:12:17;;;;;;;1.27;0.70;;;17.20;56.00;;;;;;10540253;28;20222;-64
2021/12/12 17:17:42;;;;;;;2.23;0.90;;;17.20;55.90;;;;;;10539093;28;20187;-64
2021/12/12 17:23:08;;;;;;;2.00;0.80;;;17.30;55.90;;;;;;10541146;28;20733;-64
2021/12/12 17:28:32;;;;;;;2.33;0.80;;;17.40;55.90;;;;;;10545360;28;20265;-64
2021/12/12 17:33:59;;;;;;;1.40;1.03;;;17.40;55.80;;;;;;10522347;22;20260;-68
2021/12/12 17:39:26;;;;;;;2.20;1.20;;;17.40;55.90;;;;;;10456494;28;20295;-68
2021/12/12 17:45:49;;;;;;;1.77;1.00;;;17.40;55.40;;;;;;10451985;28;20200;-67
2021/12/12 17:51:50;;;;;;;1.13;0.80;;;17.30;56.00;;;;;;10443943;28;20220;-68
2021/12/12 17:57:19;;;;;;;1.03;0.93;;;17.30;56.30;;;;;;10444058;28;20229;-67
2021/12/12 18:02:42;;;;;;;1.00;0.90;;;17.20;56.50;;;;;;10445814;28;20193;-67
2021/12/12 18:08:26;;;;;;;1.37;0.70;;;17.20;56.50;;;;;;10449175;28;20228;-68
2021/12/12 18:13:56;;;;;;;1.27;1.03;;;17.20;56.50;;;;;;10453879;28;20201;-67
2021/12/12 18:20:18;;;;;;;1.00;0.90;;;17.30;56.60;;;;;;10444013;28;20216;-67
2021/12/12 18:25:47;;;;;;;1.77;0.87;;;17.30;56.50;;;;;;10446661;28;20204;-67
2021/12/12 18:31:14;;;;;;;1.10;0.93;;;17.30;56.70;;;;;;10449648;28;20228;-68
2021/12/12 18:36:39;;;;;;;1.00;0.80;;;17.30;56.80;;;;;;10449906;28;20221;-68
2021/12/12 18:42:04;;;;;;;1.57;1.00;;;17.30;56.90;;;;;;10456273;28;20200;-68
2021/12/12 18:47:32;;;;;;;1.80;1.00;;;17.30;57.10;;;;;;10448984;28;20216;-67
2021/12/12 18:53:00;;;;;;;3.27;1.10;;;17.30;57.10;;;;;;10448960;28;20701;-68
2021/12/12 18:58:26;;;;;;;1.30;0.93;;;17.20;57.20;;;;;;10450217;28;20217;-67
2021/12/12 19:03:55;;;;;;;1.20;0.83;;;17.20;57.30;;;;;;10459802;28;20198;-67
2021/12/12 19:09:20;;;;;;;1.10;1.00;;;17.20;57.40;;;;;;10455470;28;20224;-66
2021/12/12 19:14:43;;;;;;;1.20;0.80;;;17.20;57.50;;;;;;10461743;28;20196;-66
2021/12/12 19:20:13;;;;;;;2.20;0.80;;;17.30;57.30;;;;;;10457661;28;20224;-66
2021/12/12 19:25:36;;;;;;;0.80;0.80;;;17.30;57.20;;;;;;10456756;28;20216;-66
2021/12/12 19:31:02;;;;;;;0.87;0.77;;;17.30;57.10;;;;;;10458395;28;20213;-66
2021/12/12 19:36:31;;;;;;;0.70;0.70;;;17.30;57.20;;;;;;10456066;28;20602;-69
2021/12/12 19:41:58;;;;;;;1.17;1.00;;;17.30;57.20;;;;;;10454033;28;20205;-68
2021/12/12 19:47:22;;;;;;;0.60;0.60;;;17.30;57.20;;;;;;10467627;28;20222;-68
2021/12/12 19:52:48;;;;;;;0.73;0.73;;;17.40;57.30;;;;;;10453710;28;20240;-68
2021/12/12 19:58:14;;;;;;;2.17;0.90;;;17.40;57.30;;;;;;10454044;28;20221;-68
2021/12/12 20:03:40;;;;;;;1.33;0.83;;;17.40;57.30;;;;;;10460807;28;20198;-68
2021/12/12 20:09:07;;;;;;;1.33;0.77;;;17.40;57.40;;;;;;10452529;28;20582;-69
2021/12/12 20:14:32;;;;;;;1.50;0.80;;;17.40;57.50;;;;;;10463926;28;20193;-68
2021/12/12 20:19:59;;;;;;;2.90;1.00;;;17.40;57.60;;;;;;10450570;28;20216;-68
2021/12/12 20:25:26;;;;;;;0.80;0.67;;;17.40;57.60;;;;;;10454009;28;20193;-68
2021/12/12 20:30:52;;;;;;;1.47;0.70;;;17.40;57.70;;;;;;10464946;28;20899;-67
2021/12/12 20:36:20;;;;;;;0.80;0.80;;;17.40;57.80;;;;;;10450466;28;20228;-68
2021/12/12 20:41:51;;;;;;;1.20;0.90;;;17.30;57.80;;;;;;10450574;28;20194;-68
2021/12/12 20:47:22;;;;;;;1.13;0.90;;;17.30;57.80;;;;;;10447125;28;20213;-68
2021/12/12 20:52:48;;;;;;;1.20;0.80;;;17.40;57.80;;;;;;10445449;28;20761;-68
2021/12/12 20:58:14;;;;;;;1.90;0.80;;;17.30;57.80;;;;;;10446535;28;20224;-67
2021/12/12 21:03:39;;;;;;;1.23;0.80;;;17.30;57.80;;;;;;10446947;28;20185;-67
2021/12/12 21:09:08;;;;;;;2.13;1.00;;;17.30;57.90;;;;;;10447924;28;20223;-67
2021/12/12 21:14:35;;;;;;;1.67;0.80;;;17.30;57.80;;;;;;10445671;28;20197;-67
2021/12/12 21:20:00;;;;;;;1.07;0.97;;;17.30;57.80;;;;;;10448198;28;20213;-67
2021/12/12 21:25:35;;;;;;;1.00;0.80;;;17.30;57.80;;;;;;10454855;28;20201;-68
2021/12/12 21:31:01;;;;;;;1.30;1.17;;;17.30;57.80;;;;;;10452000;28;20228;-70
2021/12/12 21:36:34;;;;;;;1.20;0.73;;;17.30;57.80;;;;;;10445189;28;20247;-68
2021/12/12 21:42:01;;;;;;;0.90;0.80;;;17.30;57.80;;;;;;10474584;28;20554;-68
2021/12/12 21:47:30;;;;;;;1.23;0.87;;;17.30;57.90;;;;;;10472952;28;20727;-68
2021/12/12 21:52:55;;;;;;;0.97;0.77;;;17.30;57.90;;;;;;10453221;28;20213;-69
2021/12/12 21:58:26;;;;;;;1.07;0.90;;;17.20;58.00;;;;;;10452447;28;20686;-68
2021/12/12 22:03:52;;;;;;;0.80;0.63;;;17.20;58.10;;;;;;10462086;28;20189;-69
2021/12/12 22:09:18;;;;;;;0.93;0.87;;;17.20;58.20;;;;;;10487246;28;20559;-68
2021/12/12 22:14:45;;;;;;;1.33;0.70;;;17.10;58.20;;;;;;10490749;28;20192;-69
2021/12/12 22:20:12;;;;;;;1.40;0.87;;;17.20;58.20;;;;;;10465178;28;20674;-69
2021/12/12 22:25:42;;;;;;;0.67;0.60;;;17.10;58.70;;;;;;10449538;28;20200;-68
2021/12/12 22:31:08;;;;;;;0.70;0.70;;;17.10;58.10;;;;;;10450508;28;20694;-70
2021/12/12 22:36:35;;;;;;;1.07;0.70;;;17.20;58.20;;;;;;10450053;28;20217;-70
2021/12/12 22:42:01;;;;;;;1.03;0.70;;;17.20;58.20;;;;;;10450904;28;20193;-69
2021/12/12 22:47:24;;;;;;;1.73;0.97;;;17.10;58.20;;;;;;10458554;28;20209;-68
2021/12/12 22:52:51;;;;;;;0.70;0.70;;;17.20;58.20;;;;;;10458569;28;20239;-68
2021/12/12 22:58:17;;;;;;;1.03;0.70;;;17.20;58.20;;;;;;10457937;28;20220;-68
2021/12/12 23:03:40;;;;;;;0.50;0.50;;;17.10;58.10;;;;;;10457623;28;20200;-68
2021/12/12 23:09:08;;;;;;;1.20;0.80;;;17.10;58.20;;;;;;10456280;28;20223;-69
2021/12/12 23:14:31;;;;;;;0.70;0.70;;;17.10;58.20;;;;;;10457756;28;20193;-68
2021/12/12 23:19:58;;;;;;;0.70;0.70;;;17.10;58.20;;;;;;10456371;28;20236;-68
2021/12/12 23:25:26;;;;;;;0.60;0.40;;;17.10;58.20;;;;;;10455865;28;20558;-69
2021/12/12 23:30:51;;;;;;;0.67;0.50;;;17.10;58.30;;;;;;10457101;28;20244;-68
2021/12/12 23:36:15;;;;;;;0.70;0.60;;;17.10;58.30;;;;;;10466499;22;20224;-63
2021/12/12 23:41:46;;;;;;;1.30;0.80;;;17.10;58.30;;;;;;10451305;28;20202;-63
2021/12/12 23:47:12;;;;;;;0.67;0.60;;;17.10;58.30;;;;;;10415116;28;20674;-63
2021/12/12 23:52:39;;;;;;;1.17;0.90;;;17.10;58.30;;;;;;10416315;28;20214;-63
2021/12/12 23:58:08;;;;;;;0.53;0.50;;;17.10;58.30;;;;;;10415303;28;20659;-64
